Time;durP1;ratioP1;P1;durP2;ratioP2;P2;SDS_P1;SDS_P2;PMS_P1;PMS_P2;Temp;Humidity;BMP_temperature;BMP_pressure;BME280_temperature;BME280_humidity;BME280_pressure;Samples;Min_cycle;Max_cycle;Signal;HPM_P1;HPM_P2
2024/04/19 00:00:03;;;;;;;;;;;7.20;75.80;;;;;;5464926;26;20004;-69
2024/04/19 00:02:41;;;;;;;;;;;7.20;75.80;;;;;;5460349;26;19997;-69
2024/04/19 00:05:08;;;;;;;;;;;7.20;75.80;;;;;;5460055;26;19940;-69
2024/04/19 00:07:37;;;;;;;;;;;7.20;75.80;;;;;;5463180;26;19935;-69
2024/04/19 00:10:03;;;;;;;;;;;7.20;75.80;;;;;;5467268;26;19964;-68
2024/04/19 00:12:32;;;;;;;;;;;7.10;75.80;;;;;;5461139;26;19932;-70
2024/04/19 00:15:00;;;;;;;;;;;7.10;75.90;;;;;;5467653;26;19935;-70
2024/04/19 00:17:29;;;;;;;;;;;7.10;75.90;;;;;;5461323;26;19929;-67
2024/04/19 00:19:55;;;;;;;;;;;7.10;76.00;;;;;;5460970;26;19946;-67
2024/04/19 00:22:24;;;;;;;;;;;7.20;76.10;;;;;;5460027;26;19936;-68
2024/04/19 00:24:50;;;;;;;;;;;7.10;76.10;;;;;;5461723;26;19953;-65
2024/04/19 00:27:19;;;;;;;;;;;7.10;76.20;;;;;;5463549;26;19960;-65
2024/04/19 00:29:45;;;;;;;;;;;7.10;76.20;;;;;;5464467;26;19928;-66
2024/04/19 00:32:16;;;;;;;;;;;7.10;76.30;;;;;;5464450;26;19928;-67
2024/04/19 00:34:42;;;;;;;;;;;7.10;76.30;;;;;;5455509;26;19939;-67
2024/04/19 00:37:11;;;;;;;;;;;7.10;76.40;;;;;;5463498;26;19928;-66
2024/04/19 00:39:37;;;;;;;;;;;7.10;76.30;;;;;;5459941;26;19976;-65
2024/04/19 00:42:06;;;;;;;;;;;7.10;76.30;;;;;;5463581;26;19932;-69
2024/04/19 00:44:32;;;;;;;;;;;7.10;76.40;;;;;;5463536;26;19927;-70
2024/04/19 00:47:00;;;;;;;;;;;7.10;76.50;;;;;;5447113;26;19935;-68
2024/04/19 00:49:32;;;;;;;;;;;7.10;76.50;;;;;;5457552;26;19936;-69
2024/04/19 00:52:01;;;;;;;;;;;7.10;76.30;;;;;;5461636;26;19939;-68
2024/04/19 00:54:27;;;;;;;;;;;7.10;76.20;;;;;;5462901;26;20006;-68
2024/04/19 00:56:56;;;;;;;;;;;7.10;76.10;;;;;;5457357;26;19929;-67
2024/04/19 00:59:23;;;;;;;;;;;7.10;76.00;;;;;;5462221;26;19944;-69
2024/04/19 01:01:52;;;;;;;;;;;7.10;75.80;;;;;;5461877;26;19932;-74
2024/04/19 01:04:18;;;;;;;;;;;7.10;75.80;;;;;;5453281;26;19929;-74
2024/04/19 01:06:49;;;;;;;;;;;7.10;75.70;;;;;;5459896;26;19933;-75
2024/04/19 01:09:16;;;;;;;;;;;7.20;75.70;;;;;;5461198;26;20266;-73
2024/04/19 01:11:44;;;;;;;;;;;7.20;75.50;;;;;;5462776;26;19928;-74
2024/04/19 01:14:10;;;;;;;;;;;7.20;75.50;;;;;;5460179;26;19997;-73
2024/04/19 01:16:39;;;;;;;;;;;7.20;75.40;;;;;;5455185;26;20008;-73
2024/04/19 01:19:06;;;;;;;;;;;7.20;75.40;;;;;;5457921;26;19997;-74
2024/04/19 01:21:35;;;;;;;;;;;7.20;75.40;;;;;;5459819;26;19940;-74
2024/04/19 01:24:09;;;;;;;;;;;7.20;75.20;;;;;;5461470;26;19935;-73
2024/04/19 01:26:40;;;;;;;;;;;7.20;75.30;;;;;;5449677;26;19928;-74
2024/04/19 01:29:06;;;;;;;;;;;7.20;75.30;;;;;;5461968;26;20300;-74
2024/04/19 01:31:35;;;;;;;;;;;7.20;75.20;;;;;;5462705;26;19935;-72
2024/04/19 01:34:01;;;;;;;;;;;7.20;75.30;;;;;;5459636;26;20025;-74
2024/04/19 01:36:30;;;;;;;;;;;7.20;75.30;;;;;;5462540;26;19929;-73
2024/04/19 01:38:56;;;;;;;;;;;7.20;75.40;;;;;;5459306;26;19928;-73
2024/04/19 01:41:25;;;;;;;;;;;7.20;75.30;;;;;;5463172;26;19928;-75
2024/04/19 01:43:53;;;;;;;;;;;7.20;75.30;;;;;;5450975;26;19936;-73
2024/04/19 01:46:22;;;;;;;;;;;7.20;75.30;;;;;;5458022;26;19998;-74
2024/04/19 01:48:48;;;;;;;;;;;7.20;75.30;;;;;;5461024;26;19928;-74
2024/04/19 01:51:17;;;;;;;;;;;7.20;75.20;;;;;;5456082;26;19928;-75
2024/04/19 01:53:45;;;;;;;;;;;7.20;75.30;;;;;;5461718;26;20427;-74
2024/04/19 01:56:12;;;;;;;;;;;7.20;75.20;;;;;;5460448;26;20386;-75
2024/04/19 01:58:43;;;;;;;;;;;7.20;75.30;;;;;;5460703;26;20364;-73
2024/04/19 02:01:12;;;;;;;;;;;7.20;75.30;;;;;;5458892;26;19936;-74
2024/04/19 02:03:41;;;;;;;;;;;7.20;75.10;;;;;;5459998;26;20000;-74
2024/04/19 02:06:07;;;;;;;;;;;7.20;75.20;;;;;;5462054;26;19928;-72
2024/04/19 02:08:36;;;;;;;;;;;7.20;75.20;;;;;;5458306;26;20355;-74
2024/04/19 02:11:03;;;;;;;;;;;7.20;75.20;;;;;;5462436;26;19933;-62
2024/04/19 02:13:31;;;;;;;;;;;7.20;75.40;;;;;;5457013;26;19997;-74
2024/04/19 02:15:57;;;;;;;;;;;7.20;75.30;;;;;;5463206;26;19932;-73
2024/04/19 02:18:29;;;;;;;;;;;7.20;75.40;;;;;;5455040;26;19947;-74
2024/04/19 02:20:55;;;;;;;;;;;7.20;75.40;;;;;;5463744;26;19937;-74
2024/04/19 02:23:26;;;;;;;;;;;7.20;75.40;;;;;;5461515;26;19998;-73
2024/04/19 02:25:52;;;;;;;;;;;7.20;75.30;;;;;;5458046;26;20260;-74
2024/04/19 02:31:05;;;;;;;;;;;7.20;75.50;;;;;;5464877;26;19928;-74
2024/04/19 02:33:37;;;;;;;;;;;7.20;75.60;;;;;;5458769;26;19928;-73
2024/04/19 02:36:03;;;;;;;;;;;7.20;75.50;;;;;;5462921;26;19928;-73
2024/04/19 02:38:32;;;;;;;;;;;7.20;75.30;;;;;;5459162;26;20327;-74
2024/04/19 02:41:00;;;;;;;;;;;7.30;75.30;;;;;;5457876;26;19944;-74
2024/04/19 02:43:29;;;;;;;;;;;7.30;75.40;;;;;;5458841;26;19940;-73
2024/04/19 02:46:03;;;;;;;;;;;7.30;75.50;;;;;;5463501;26;19928;-74
2024/04/19 02:48:32;;;;;;;;;;;7.30;75.40;;;;;;5458562;26;20363;-74
2024/04/19 02:51:04;;;;;;;;;;;7.30;75.40;;;;;;5459455;26;19956;-74
2024/04/19 02:53:33;;;;;;;;;;;7.30;75.50;;;;;;5462379;26;20363;-73
2024/04/19 02:56:03;;;;;;;;;;;7.30;75.80;;;;;;5462950;26;19936;-74
2024/04/19 02:58:32;;;;;;;;;;;7.30;75.90;;;;;;5424409;26;20268;-73
2024/04/19 03:01:01;;;;;;;;;;;7.30;75.70;;;;;;5426865;26;20374;-74
2024/04/19 03:03:29;;;;;;;;;;;7.30;75.80;;;;;;5418628;26;19929;-74
2024/04/19 03:05:58;;;;;;;;;;;7.30;75.90;;;;;;5421044;26;20267;-74
2024/04/19 03:08:30;;;;;;;;;;;7.30;76.10;;;;;;5417460;26;19998;-73
2024/04/19 03:10:59;;;;;;;;;;;7.30;76.00;;;;;;5424728;26;19936;-76
2024/04/19 03:13:28;;;;;;;;;;;7.30;75.90;;;;;;5420745;26;19929;-72
2024/04/19 03:16:04;;;;;;;;;;;7.30;75.90;;;;;;5426096;26;20027;-74
2024/04/19 03:18:43;;;;;;;;;;;7.30;75.90;;;;;;5415741;26;20558;-73
2024/04/19 03:21:12;;;;;;;;;;;7.30;75.60;;;;;;5453706;26;19929;-61
2024/04/19 03:23:44;;;;;;;;;;;7.30;75.70;;;;;;5463044;26;19934;-61
2024/04/19 03:26:13;;;;;;;;;;;7.30;75.60;;;;;;5459356;26;19928;-61
2024/04/19 03:28:41;;;;;;;;;;;7.30;75.70;;;;;;5459813;26;19929;-62
2024/04/19 03:31:10;;;;;;;;;;;7.40;75.70;;;;;;5478595;26;19941;-60
2024/04/19 03:33:39;;;;;;;;;;;7.30;75.60;;;;;;5461241;26;19929;-61
2024/04/19 03:36:09;;;;;;;;;;;7.30;75.60;;;;;;5454467;26;19928;-61
2024/04/19 03:38:38;;;;;;;;;;;7.40;75.40;;;;;;5464161;26;19932;-61
2024/04/19 03:41:09;;;;;;;;;;;7.30;75.20;;;;;;5466147;26;19935;-62
2024/04/19 03:43:41;;;;;;;;;;;7.30;75.20;;;;;;5462950;26;20377;-61
2024/04/19 03:46:07;;;;;;;;;;;7.30;76.10;;;;;;5466909;26;19935;-61
2024/04/19 03:48:36;;;;;;;;;;;7.20;76.90;;;;;;5460892;26;19932;-61
2024/04/19 03:51:05;;;;;;;;;;;7.30;77.70;;;;;;5460581;26;20096;-61
2024/04/19 03:53:34;;;;;;;;;;;7.20;77.80;;;;;;5463289;26;19967;-60
2024/04/19 03:56:03;;;;;;;;;;;7.20;78.10;;;;;;5465918;26;19935;-61
2024/04/19 03:58:34;;;;;;;;;;;7.20;78.30;;;;;;5468421;26;20371;-61
2024/04/19 04:01:05;;;;;;;;;;;7.20;78.50;;;;;;5464801;26;20371;-62
2024/04/19 04:03:34;;;;;;;;;;;7.20;78.80;;;;;;5467598;26;19932;-62
2024/04/19 04:06:03;;;;;;;;;;;7.20;78.90;;;;;;5459912;26;20332;-62
2024/04/19 04:08:32;;;;;;;;;;;7.20;79.00;;;;;;5463646;26;19928;-61
2024/04/19 04:11:01;;;;;;;;;;;7.20;79.10;;;;;;5462000;26;19928;-61
2024/04/19 04:13:29;;;;;;;;;;;7.20;79.50;;;;;;5466948;26;20022;-61
2024/04/19 04:16:01;;;;;;;;;;;7.20;79.40;;;;;;5467098;26;19935;-61
2024/04/19 04:18:29;;;;;;;;;;;7.20;79.50;;;;;;5461534;26;19937;-61
2024/04/19 04:20:58;;;;;;;;;;;7.20;79.60;;;;;;5461829;26;20382;-61
2024/04/19 04:23:27;;;;;;;;;;;7.20;79.80;;;;;;5464999;26;19928;-62
2024/04/19 04:25:55;;;;;;;;;;;7.20;79.90;;;;;;5477380;26;19935;-61
2024/04/19 04:28:24;;;;;;;;;;;7.20;80.00;;;;;;5465630;26;19936;-61
2024/04/19 04:30:53;;;;;;;;;;;7.20;80.00;;;;;;5465692;26;19964;-60
2024/04/19 04:33:24;;;;;;;;;;;7.20;80.10;;;;;;5465093;26;19940;-62
2024/04/19 04:35:53;;;;;;;;;;;7.20;80.20;;;;;;5469591;26;19936;-63
2024/04/19 04:41:59;;;;;;;;;;;7.10;80.40;;;;;;5464062;26;19935;-62
2024/04/19 04:44:32;;;;;;;;;;;7.20;80.60;;;;;;5466199;26;19939;-62
2024/04/19 04:47:01;;;;;;;;;;;7.20;80.80;;;;;;5462871;26;19929;-62
2024/04/19 04:49:32;;;;;;;;;;;7.20;80.60;;;;;;5464841;26;19934;-63
2024/04/19 04:52:01;;;;;;;;;;;7.20;80.70;;;;;;5458174;26;19928;-64
2024/04/19 04:54:30;;;;;;;;;;;7.20;81.00;;;;;;5460809;26;19957;-62
2024/04/19 04:56:58;;;;;;;;;;;7.20;81.00;;;;;;5466723;26;19927;-62
2024/04/19 04:59:27;;;;;;;;;;;7.20;80.90;;;;;;5474448;26;19947;-63
2024/04/19 05:01:56;;;;;;;;;;;7.20;81.20;;;;;;5473334;26;19928;-62
2024/04/19 05:04:25;;;;;;;;;;;7.20;81.40;;;;;;5473467;26;20378;-62
2024/04/19 05:06:56;;;;;;;;;;;7.20;81.60;;;;;;5461726;26;19928;-61
2024/04/19 05:09:25;;;;;;;;;;;7.20;81.50;;;;;;5469112;26;19928;-62
2024/04/19 05:11:53;;;;;;;;;;;7.20;81.60;;;;;;5474049;26;19955;-63
2024/04/19 05:14:22;;;;;;;;;;;7.20;81.80;;;;;;5470319;26;19928;-62
2024/04/19 05:16:51;;;;;;;;;;;7.20;81.90;;;;;;5469586;26;19936;-62
2024/04/19 05:19:20;;;;;;;;;;;7.20;82.10;;;;;;5460818;26;20168;-62
2024/04/19 05:21:48;;;;;;;;;;;7.20;82.00;;;;;;5464155;26;20363;-65
2024/04/19 05:24:19;;;;;;;;;;;7.20;82.30;;;;;;5463870;26;19928;-62
2024/04/19 05:26:48;;;;;;;;;;;7.20;82.40;;;;;;5467645;26;19928;-63
2024/04/19 05:29:17;;;;;;;;;;;7.20;82.60;;;;;;5464668;26;19927;-63
2024/04/19 05:31:45;;;;;;;;;;;7.20;82.70;;;;;;5463106;26;19982;-63
2024/04/19 05:34:15;;;;;;;;;;;7.20;82.70;;;;;;5456828;26;19947;-63
2024/04/19 05:36:43;;;;;;;;;;;7.20;82.80;;;;;;5460718;26;20613;-62
2024/04/19 05:39:12;;;;;;;;;;;7.10;83.10;;;;;;5458298;26;19932;-64
2024/04/19 05:41:43;;;;;;;;;;;7.20;83.10;;;;;;5465669;26;19928;-74
2024/04/19 05:44:18;;;;;;;;;;;7.20;83.20;;;;;;5464940;26;19981;-73
2024/04/19 05:46:47;;;;;;;;;;;7.20;83.30;;;;;;5465108;26;20318;-72
2024/04/19 05:49:16;;;;;;;;;;;7.20;83.30;;;;;;5461773;26;19955;-73
2024/04/19 05:51:45;;;;;;;;;;;7.20;83.10;;;;;;5460058;26;20313;-72
2024/04/19 05:54:13;;;;;;;;;;;7.10;83.00;;;;;;5461159;26;19935;-72
2024/04/19 05:56:45;;;;;;;;;;;7.10;83.00;;;;;;5462397;26;19929;-72
2024/04/19 05:59:13;;;;;;;;;;;7.10;83.00;;;;;;5462217;26;20018;-72
2024/04/19 06:01:44;;;;;;;;;;;7.20;82.80;;;;;;5463962;26;19929;-73
2024/04/19 06:04:13;;;;;;;;;;;7.10;82.90;;;;;;5463803;26;19927;-73
2024/04/19 06:06:42;;;;;;;;;;;7.10;83.10;;;;;;5453823;26;19928;-72
2024/04/19 06:09:11;;;;;;;;;;;7.10;83.00;;;;;;5459342;26;21070;-73
2024/04/19 06:11:39;;;;;;;;;;;7.10;83.00;;;;;;5462446;26;20360;-71
2024/04/19 06:14:11;;;;;;;;;;;7.00;82.70;;;;;;5461571;26;20001;-73
2024/04/19 06:20:15;;;;;;;;;;;7.00;82.50;;;;;;5455821;26;20655;-73
2024/04/19 06:22:43;;;;;;;;;;;7.00;82.70;;;;;;5463319;26;19939;-73
2024/04/19 06:25:12;;;;;;;;;;;6.90;82.70;;;;;;5464100;26;20294;-73
2024/04/19 06:27:41;;;;;;;;;;;7.00;82.80;;;;;;5463838;26;19940;-72
2024/04/19 06:30:13;;;;;;;;;;;7.00;82.70;;;;;;5464682;26;19936;-72
2024/04/19 06:32:41;;;;;;;;;;;6.90;82.60;;;;;;5463434;26;19961;-72
2024/04/19 06:35:13;;;;;;;;;;;7.00;82.70;;;;;;5458434;26;19928;-73
2024/04/19 06:37:42;;;;;;;;;;;6.90;82.70;;;;;;5457064;26;19997;-72
2024/04/19 06:40:11;;;;;;;;;;;6.90;82.40;;;;;;5450985;26;20000;-73
2024/04/19 06:42:40;;;;;;;;;;;6.90;82.30;;;;;;5463848;26;20367;-72
2024/04/19 06:45:09;;;;;;;;;;;6.90;82.50;;;;;;5460139;26;19935;-73
2024/04/19 06:47:40;;;;;;;;;;;6.90;82.40;;;;;;5455721;26;20252;-71
2024/04/19 06:50:09;;;;;;;;;;;6.90;82.60;;;;;;5462314;26;19929;-72
2024/04/19 06:52:38;;;;;;;;;;;6.90;82.60;;;;;;5461551;26;20375;-60
2024/04/19 06:55:07;;;;;;;;;;;6.80;82.80;;;;;;5457907;26;19929;-61
2024/04/19 06:57:36;;;;;;;;;;;6.90;82.80;;;;;;5462436;26;19936;-60
2024/04/19 07:00:05;;;;;;;;;;;6.80;83.00;;;;;;5460425;26;19935;-59
2024/04/19 07:06:15;;;;;;;;;;;6.80;83.10;;;;;;5470201;26;20001;-60
2024/04/19 07:08:44;;;;;;;;;;;6.80;83.10;;;;;;5465450;26;19944;-60
2024/04/19 07:11:13;;;;;;;;;;;6.80;83.30;;;;;;5458467;26;19928;-60
2024/04/19 07:17:17;;;;;;;;;;;6.80;83.20;;;;;;5464323;26;20000;-61
2024/04/19 07:19:45;;;;;;;;;;;6.90;83.30;;;;;;5461606;26;20156;-60
2024/04/19 07:22:18;;;;;;;;;;;6.80;83.40;;;;;;5465597;26;19929;-60
2024/04/19 07:24:47;;;;;;;;;;;6.90;83.60;;;;;;5466719;26;20275;-59
2024/04/19 07:27:17;;;;;;;;;;;6.80;83.50;;;;;;5466908;26;19936;-60
2024/04/19 07:29:46;;;;;;;;;;;6.80;83.50;;;;;;5464400;26;19936;-65
2024/04/19 07:32:15;;;;;;;;;;;6.90;83.60;;;;;;5468042;26;19967;-57
2024/04/19 07:34:44;;;;;;;;;;;6.90;83.40;;;;;;5465523;26;20366;-63
2024/04/19 07:37:12;;;;;;;;;;;6.90;83.40;;;;;;5464634;26;19936;-60
2024/04/19 07:40:09;;;;;;;;;;;6.90;83.60;;;;;;5466955;26;19928;-60
2024/04/19 07:43:10;;;;;;;;;;;6.90;83.50;;;;;;5468024;26;20065;-58
2024/04/19 07:45:39;;;;;;;;;;;6.90;83.60;;;;;;5464751;26;19936;-60
2024/04/19 07:48:08;;;;;;;;;;;6.90;83.70;;;;;;5464027;26;19929;-59
2024/04/19 07:50:37;;;;;;;;;;;6.90;83.70;;;;;;5465404;26;19940;-59
2024/04/19 07:53:08;;;;;;;;;;;6.90;83.50;;;;;;5464108;26;19927;-62
2024/04/19 07:55:42;;;;;;;;;;;6.90;83.50;;;;;;5464260;26;19968;-60
2024/04/19 07:58:11;;;;;;;;;;;6.90;83.60;;;;;;5466561;26;19932;-59
2024/04/19 08:00:40;;;;;;;;;;;6.90;83.50;;;;;;5467380;26;19928;-61
2024/04/19 08:03:08;;;;;;;;;;;6.90;83.60;;;;;;5466080;26;19928;-73
2024/04/19 08:05:37;;;;;;;;;;;6.90;83.60;;;;;;5466004;26;19935;-72
2024/04/19 08:08:06;;;;;;;;;;;6.90;83.70;;;;;;5462401;26;22517;-69
2024/04/19 08:10:35;;;;;;;;;;;6.90;83.50;;;;;;5460496;26;19928;-73
2024/04/19 08:13:08;;;;;;;;;;;6.90;83.60;;;;;;5456355;26;20024;-73
2024/04/19 08:15:36;;;;;;;;;;;6.90;83.50;;;;;;5467393;26;19928;-72
2024/04/19 08:18:05;;;;;;;;;;;7.00;83.40;;;;;;5464220;26;19932;-72
2024/04/19 08:20:34;;;;;;;;;;;7.00;83.60;;;;;;5464443;26;19935;-73
2024/04/19 08:23:03;;;;;;;;;;;7.00;83.50;;;;;;5464589;26;19928;-73
2024/04/19 08:25:32;;;;;;;;;;;7.00;83.70;;;;;;5465928;26;19949;-73
2024/04/19 08:28:01;;;;;;;;;;;7.00;83.70;;;;;;5467879;26;20431;-74
2024/04/19 08:30:32;;;;;;;;;;;7.00;83.60;;;;;;5464651;26;19946;-73
2024/04/19 08:33:01;;;;;;;;;;;7.00;83.90;;;;;;5463807;26;19928;-73
2024/04/19 08:35:30;;;;;;;;;;;7.00;83.70;;;;;;5462429;26;19929;-73
2024/04/19 08:37:58;;;;;;;;;;;7.00;83.80;;;;;;5451959;26;19928;-72
2024/04/19 08:40:29;;;;;;;;;;;7.00;83.80;;;;;;5463631;26;19936;-73
2024/04/19 08:42:57;;;;;;;;;;;7.00;83.60;;;;;;5465668;26;20386;-72
2024/04/19 08:48:52;;;;;;;;;;;7.00;83.60;;;;;;5460961;26;19936;-72
2024/04/19 08:51:21;;;;;;;;;;;6.90;83.70;;;;;;5465239;26;19944;-72
2024/04/19 08:53:48;;;;;;;;;;;7.00;83.70;;;;;;5465253;26;19935;-73
2024/04/19 08:56:17;;;;;;;;;;;7.00;83.50;;;;;;5461566;26;19996;-71
2024/04/19 08:58:45;;;;;;;;;;;7.00;83.80;;;;;;5464890;26;20026;-72
2024/04/19 09:01:17;;;;;;;;;;;7.00;83.80;;;;;;5458563;26;20033;-72
2024/04/19 09:03:45;;;;;;;;;;;7.00;84.00;;;;;;5477686;26;19928;-72
2024/04/19 09:06:15;;;;;;;;;;;7.00;83.90;;;;;;5463247;26;19929;-72
2024/04/19 09:08:44;;;;;;;;;;;7.00;83.80;;;;;;5461867;26;19929;-73
2024/04/19 09:11:13;;;;;;;;;;;7.00;83.80;;;;;;5460645;26;20632;-61
2024/04/19 09:13:43;;;;;;;;;;;6.90;83.70;;;;;;5462579;26;20557;-63
2024/04/19 09:16:12;;;;;;;;;;;6.90;84.00;;;;;;5458267;26;19928;-63
2024/04/19 09:18:43;;;;;;;;;;;6.90;84.00;;;;;;5465133;26;19996;-64
2024/04/19 09:21:12;;;;;;;;;;;7.00;84.00;;;;;;5461627;26;19939;-63
2024/04/19 09:23:40;;;;;;;;;;;7.00;84.10;;;;;;5463778;26;19935;-63
2024/04/19 09:26:10;;;;;;;;;;;7.00;84.10;;;;;;5463320;26;19928;-63
2024/04/19 09:28:39;;;;;;;;;;;7.00;83.90;;;;;;5462138;26;19960;-62
2024/04/19 09:31:08;;;;;;;;;;;7.00;84.00;;;;;;5463149;26;19934;-62
2024/04/19 09:33:38;;;;;;;;;;;7.00;84.00;;;;;;5462624;26;19928;-62
2024/04/19 09:36:10;;;;;;;;;;;7.00;84.00;;;;;;5462224;26;20416;-63
2024/04/19 09:38:40;;;;;;;;;;;7.00;84.00;;;;;;5459553;26;20260;-63
2024/04/19 09:41:09;;;;;;;;;;;7.00;84.00;;;;;;5454946;26;19936;-61
2024/04/19 09:43:39;;;;;;;;;;;7.10;84.10;;;;;;5462994;26;19928;-63
2024/04/19 09:46:08;;;;;;;;;;;7.10;84.00;;;;;;5464214;26;19960;-65
2024/04/19 09:48:39;;;;;;;;;;;7.10;83.80;;;;;;5465977;26;20013;-62
2024/04/19 09:51:15;;;;;;;;;;;7.10;83.80;;;;;;5462107;26;19936;-63
2024/04/19 09:53:46;;;;;;;;;;;7.10;84.00;;;;;;5465291;26;19928;-63
2024/04/19 09:56:23;;;;;;;;;;;7.10;83.90;;;;;;5462259;26;19928;-63
2024/04/19 09:58:53;;;;;;;;;;;7.10;84.00;;;;;;5452509;26;20465;-62
2024/04/19 10:01:21;;;;;;;;;;;7.10;84.00;;;;;;5460882;26;20609;-63
2024/04/19 10:03:51;;;;;;;;;;;7.10;84.20;;;;;;5462316;26;19928;-61
2024/04/19 10:06:25;;;;;;;;;;;7.10;84.20;;;;;;5460996;26;19928;-63
2024/04/19 10:08:54;;;;;;;;;;;7.10;84.30;;;;;;5460398;26;20029;-62
2024/04/19 10:11:23;;;;;;;;;;;7.10;84.40;;;;;;5462470;26;19944;-63
2024/04/19 10:13:52;;;;;;;;;;;7.20;84.40;;;;;;5459088;26;21513;-62
2024/04/19 10:16:21;;;;;;;;;;;7.20;84.40;;;;;;5461931;26;19935;-62
2024/04/19 10:18:50;;;;;;;;;;;7.10;84.50;;;;;;5465950;26;19935;-62
2024/04/19 10:21:18;;;;;;;;;;;7.20;84.50;;;;;;5469927;26;20881;-65
2024/04/19 10:23:51;;;;;;;;;;;7.20;84.60;;;;;;5456272;26;19935;-65
2024/04/19 10:26:22;;;;;;;;;;;7.30;84.70;;;;;;5462593;26;20350;-63
2024/04/19 10:28:52;;;;;;;;;;;7.30;84.40;;;;;;5473767;26;19938;-64
2024/04/19 10:31:21;;;;;;;;;;;7.30;84.90;;;;;;5462404;26;19928;-63
2024/04/19 10:33:50;;;;;;;;;;;7.30;84.90;;;;;;5462650;26;19929;-63
2024/04/19 10:36:19;;;;;;;;;;;7.30;85.00;;;;;;5460972;26;20283;-63
2024/04/19 10:38:59;;;;;;;;;;;7.30;85.00;;;;;;5461900;26;19928;-64
2024/04/19 10:41:28;;;;;;;;;;;7.30;85.00;;;;;;5461648;26;19936;-63
2024/04/19 10:43:56;;;;;;;;;;;7.30;85.20;;;;;;5451187;26;19997;-64
2024/04/19 10:46:26;;;;;;;;;;;7.30;85.10;;;;;;5460834;26;19928;-64
2024/04/19 10:48:55;;;;;;;;;;;7.30;85.10;;;;;;5458358;26;20031;-64
2024/04/19 10:51:25;;;;;;;;;;;7.40;85.10;;;;;;5464836;26;19936;-63
2024/04/19 10:54:00;;;;;;;;;;;7.40;85.00;;;;;;5458822;26;19929;-64
2024/04/19 10:56:28;;;;;;;;;;;7.40;85.00;;;;;;5462663;26;19995;-64
2024/04/19 10:58:58;;;;;;;;;;;7.50;85.00;;;;;;5464293;26;19928;-63
2024/04/19 11:01:27;;;;;;;;;;;7.40;85.20;;;;;;5455023;26;19935;-64
2024/04/19 11:03:56;;;;;;;;;;;7.40;85.10;;;;;;5461138;26;19977;-63
2024/04/19 11:06:25;;;;;;;;;;;7.40;85.50;;;;;;5464173;26;19940;-64
2024/04/19 11:08:57;;;;;;;;;;;7.40;85.50;;;;;;5462818;26;19928;-64
2024/04/19 11:11:25;;;;;;;;;;;7.40;85.40;;;;;;5457731;26;20430;-64
2024/04/19 11:13:54;;;;;;;;;;;7.40;85.70;;;;;;5464787;26;20267;-64
2024/04/19 11:16:23;;;;;;;;;;;7.50;85.90;;;;;;5460709;26;19933;-64
2024/04/19 11:18:52;;;;;;;;;;;7.50;85.80;;;;;;5454415;26;19935;-64
2024/04/19 11:21:20;;;;;;;;;;;7.40;85.90;;;;;;5462073;26;20038;-65
2024/04/19 11:23:49;;;;;;;;;;;7.50;86.00;;;;;;5461456;26;19928;-63
2024/04/19 11:26:20;;;;;;;;;;;7.50;86.10;;;;;;5455654;26;19952;-64
2024/04/19 11:28:50;;;;;;;;;;;7.50;86.00;;;;;;5461761;26;19935;-62
2024/04/19 11:31:19;;;;;;;;;;;7.60;86.10;;;;;;5461913;26;19935;-60
2024/04/19 11:33:48;;;;;;;;;;;7.50;86.10;;;;;;5464314;26;20138;-58
2024/04/19 11:39:52;;;;;;;;;;;7.60;86.00;;;;;;5463693;26;19934;-60
2024/04/19 11:42:24;;;;;;;;;;;7.60;86.10;;;;;;5459228;26;19928;-61
2024/04/19 11:44:52;;;;;;;;;;;7.60;86.20;;;;;;5459909;26;20267;-60
2024/04/19 11:47:21;;;;;;;;;;;7.60;86.30;;;;;;5455204;26;19941;-61
2024/04/19 11:49:50;;;;;;;;;;;7.70;86.20;;;;;;5461306;26;19935;-59
2024/04/19 11:52:19;;;;;;;;;;;7.70;86.40;;;;;;5461738;26;19936;-60
2024/04/19 11:54:48;;;;;;;;;;;7.70;86.30;;;;;;5463542;26;19952;-60
2024/04/19 11:57:16;;;;;;;;;;;7.70;86.40;;;;;;5462208;26;19928;-61
2024/04/19 11:59:48;;;;;;;;;;;7.70;86.40;;;;;;5465611;26;19952;-60
2024/04/19 12:02:17;;;;;;;;;;;7.70;86.40;;;;;;5458445;26;20251;-61
2024/04/19 12:04:46;;;;;;;;;;;7.70;86.60;;;;;;5463999;26;19997;-59
2024/04/19 12:07:15;;;;;;;;;;;7.70;86.50;;;;;;5462993;26;19929;-59
2024/04/19 12:09:44;;;;;;;;;;;7.70;86.60;;;;;;5466695;26;19943;-60
2024/04/19 12:12:14;;;;;;;;;;;7.80;86.80;;;;;;5466193;26;19960;-60
2024/04/19 12:14:43;;;;;;;;;;;7.80;86.60;;;;;;5465377;26;19940;-60
2024/04/19 12:17:14;;;;;;;;;;;7.80;86.60;;;;;;5459840;26;19935;-60
2024/04/19 12:19:43;;;;;;;;;;;7.80;86.50;;;;;;5466037;26;20340;-60
2024/04/19 12:22:12;;;;;;;;;;;7.80;86.50;;;;;;5461482;26;20372;-60
2024/04/19 12:24:41;;;;;;;;;;;7.80;86.90;;;;;;5466326;26;19928;-60
2024/04/19 12:27:09;;;;;;;;;;;7.80;86.80;;;;;;5463427;26;19976;-58
2024/04/19 12:29:38;;;;;;;;;;;7.90;86.90;;;;;;5467007;26;19929;-60
2024/04/19 12:32:08;;;;;;;;;;;7.90;87.00;;;;;;5462694;26;19928;-60
2024/04/19 12:34:43;;;;;;;;;;;7.90;86.90;;;;;;5462300;26;20001;-59
2024/04/19 12:37:12;;;;;;;;;;;7.90;86.90;;;;;;5464909;26;19928;-60
2024/04/19 12:39:41;;;;;;;;;;;7.90;86.90;;;;;;5460939;26;19943;-60
2024/04/19 12:42:10;;;;;;;;;;;7.90;87.10;;;;;;5463080;26;19932;-65
2024/04/19 12:44:39;;;;;;;;;;;8.00;87.10;;;;;;5466950;26;19928;-64
2024/04/19 12:47:08;;;;;;;;;;;8.00;87.10;;;;;;5464163;26;20405;-64
2024/04/19 12:49:40;;;;;;;;;;;7.90;86.90;;;;;;5460764;26;20005;-64
2024/04/19 12:52:08;;;;;;;;;;;8.00;87.00;;;;;;5465788;26;19927;-65
2024/04/19 12:54:35;;;;;;;;;;;8.00;87.10;;;;;;5464080;26;20244;-64
2024/04/19 12:57:03;;;;;;;;;;;8.00;87.10;;;;;;5464014;26;19932;-64
2024/04/19 12:59:32;;;;;;;;;;;8.00;87.10;;;;;;5459745;26;19928;-64
2024/04/19 13:02:01;;;;;;;;;;;8.00;87.20;;;;;;5462073;26;19928;-64
2024/04/19 13:04:29;;;;;;;;;;;8.00;87.20;;;;;;5461200;26;19929;-64
2024/04/19 13:07:01;;;;;;;;;;;7.90;87.40;;;;;;5455633;26;19936;-64
2024/04/19 13:09:29;;;;;;;;;;;8.00;87.40;;;;;;5463872;26;19960;-63
2024/04/19 13:11:58;;;;;;;;;;;7.90;87.50;;;;;;5448162;26;21302;-64
2024/04/19 13:14:27;;;;;;;;;;;8.00;87.40;;;;;;5460207;26;20367;-63
2024/04/19 13:16:55;;;;;;;;;;;8.00;87.40;;;;;;5456396;26;19935;-64
2024/04/19 13:19:26;;;;;;;;;;;8.00;87.40;;;;;;5456510;26;21349;-63
2024/04/19 13:21:55;;;;;;;;;;;8.00;87.50;;;;;;5462866;26;20190;-64
2024/04/19 13:24:33;;;;;;;;;;;8.00;87.50;;;;;;5443847;26;19928;-64
2024/04/19 13:27:34;;;;;;;;;;;8.10;87.70;;;;;;5458838;26;20507;-64
2024/04/19 13:30:03;;;;;;;;;;;8.10;87.30;;;;;;5463908;26;19928;-63
2024/04/19 13:32:33;;;;;;;;;;;8.10;87.40;;;;;;5461364;26;20016;-63
2024/04/19 13:35:02;;;;;;;;;;;8.10;87.50;;;;;;5465421;26;19927;-63
2024/04/19 13:37:30;;;;;;;;;;;8.10;87.40;;;;;;5463297;26;20366;-63
2024/04/19 13:40:02;;;;;;;;;;;8.10;87.30;;;;;;5463145;26;19991;-65
2024/04/19 13:42:30;;;;;;;;;;;8.10;87.60;;;;;;5458954;26;19928;-63
2024/04/19 13:44:59;;;;;;;;;;;8.10;87.40;;;;;;5464152;26;19929;-63
2024/04/19 13:47:28;;;;;;;;;;;8.10;87.70;;;;;;5461961;26;19997;-63
2024/04/19 13:49:57;;;;;;;;;;;8.10;87.60;;;;;;5463036;26;19929;-63
2024/04/19 13:52:25;;;;;;;;;;;8.10;87.60;;;;;;5461255;26;19961;-63
2024/04/19 13:54:54;;;;;;;;;;;8.20;87.60;;;;;;5466687;26;19928;-63
2024/04/19 13:57:26;;;;;;;;;;;8.20;87.60;;;;;;5461809;26;20271;-62
2024/04/19 13:59:54;;;;;;;;;;;8.10;87.60;;;;;;5464573;26;19964;-62
2024/04/19 14:02:23;;;;;;;;;;;8.20;87.70;;;;;;5455890;26;21023;-62
2024/04/19 14:04:52;;;;;;;;;;;8.20;87.80;;;;;;5463860;26;19928;-62
2024/04/19 14:07:21;;;;;;;;;;;8.20;87.80;;;;;;5462213;26;19960;-63
2024/04/19 14:09:49;;;;;;;;;;;8.20;88.00;;;;;;5458219;26;19935;-63
2024/04/19 14:12:18;;;;;;;;;;;8.20;87.90;;;;;;5463620;26;19935;-62
2024/04/19 14:14:50;;;;;;;;;;;8.20;88.00;;;;;;5457763;26;20257;-62
2024/04/19 14:17:18;;;;;;;;;;;8.20;88.30;;;;;;5448101;26;19936;-63
2024/04/19 14:19:53;;;;;;;;;;;8.20;88.20;;;;;;5452977;26;19997;-62
2024/04/19 14:22:21;;;;;;;;;;;8.20;88.00;;;;;;5459716;26;20387;-63
2024/04/19 14:24:50;;;;;;;;;;;8.20;87.50;;;;;;5458813;26;19936;-63
2024/04/19 14:27:19;;;;;;;;;;;8.10;87.20;;;;;;5458375;26;20417;-61
2024/04/19 14:29:53;;;;;;;;;;;8.10;86.80;;;;;;5458878;26;20256;-63
2024/04/19 14:32:22;;;;;;;;;;;8.10;86.70;;;;;;5448323;26;19928;-62
2024/04/19 14:34:51;;;;;;;;;;;8.10;86.60;;;;;;5460871;26;19928;-63
2024/04/19 14:37:20;;;;;;;;;;;8.20;86.50;;;;;;5455653;26;19935;-63
2024/04/19 14:39:49;;;;;;;;;;;8.20;86.30;;;;;;5461019;26;20022;-63
2024/04/19 14:42:17;;;;;;;;;;;8.30;86.20;;;;;;5461030;26;19927;-62
2024/04/19 14:44:46;;;;;;;;;;;8.40;86.30;;;;;;5461395;26;19928;-62
2024/04/19 14:47:18;;;;;;;;;;;8.30;86.20;;;;;;5451126;26;19936;-62
2024/04/19 14:49:46;;;;;;;;;;;8.30;86.40;;;;;;5448614;26;19935;-62
2024/04/19 14:52:15;;;;;;;;;;;8.40;86.30;;;;;;5458272;26;19935;-63
2024/04/19 14:54:44;;;;;;;;;;;8.40;86.30;;;;;;5459284;26;19944;-63
2024/04/19 14:57:44;;;;;;;;;;;8.40;86.40;;;;;;5459502;26;20374;-63
2024/04/19 15:00:13;;;;;;;;;;;8.40;86.40;;;;;;5461071;26;20363;-62
2024/04/19 15:02:45;;;;;;;;;;;8.50;86.80;;;;;;5461716;26;19972;-64
2024/04/19 15:05:14;;;;;;;;;;;8.50;86.90;;;;;;5461092;26;19936;-63
2024/04/19 15:07:44;;;;;;;;;;;8.60;86.40;;;;;;5459264;26;19939;-64